createdAt,value
2018-04-02T00:00:08.688Z,954.13
2018-04-02T00:01:08.754Z,954.05
2018-04-02T00:02:08.724Z,954.06
2018-04-02T00:03:08.735Z,954.06
2018-04-02T00:04:08.749Z,954.12
2018-04-02T00:05:08.765Z,954.09
2018-04-02T00:06:08.779Z,954.08
2018-04-02T00:07:08.795Z,954.08
2018-04-02T00:08:08.809Z,954.09
2018-04-02T00:09:08.823Z,954.01
2018-04-02T00:10:08.839Z,954.02
2018-04-02T00:11:09.002Z,954.03
2018-04-02T00:12:08.868Z,954.08
2018-04-02T00:13:08.893Z,954.04
2018-04-02T00:14:08.898Z,954.02
2018-04-02T00:15:08.912Z,954.03
2018-04-02T00:16:08.927Z,954.02
2018-04-02T00:17:08.942Z,954.03
2018-04-02T00:18:08.956Z,954.01
2018-04-02T00:19:08.974Z,954.06
2018-04-02T00:20:08.992Z,954.04
2018-04-02T00:21:09.000Z,954.07
2018-04-02T00:22:09.014Z,954.02
2018-04-02T00:23:09.031Z,954.05
2018-04-02T00:24:09.046Z,954.12
2018-04-02T00:25:09.060Z,954.1
2018-04-02T00:26:09.130Z,954.08
2018-04-02T00:27:09.089Z,954.06
2018-04-02T00:28:09.107Z,954.05
2018-04-02T00:29:09.117Z,954.06
2018-04-02T00:30:09.133Z,954.1
2018-04-02T00:31:09.157Z,954.08
2018-04-02T00:32:09.163Z,954.1
2018-04-02T00:33:09.195Z,954.13
2018-04-02T00:34:09.191Z,954.07
2018-04-02T00:35:09.208Z,954.1
2018-04-02T00:36:09.845Z,954.06
2018-04-02T00:37:09.235Z,954.08
2018-04-02T00:38:09.253Z,954.07
2018-04-02T00:39:09.266Z,954.03
2018-04-02T00:40:09.281Z,954
2018-04-02T00:41:09.348Z,954.07
2018-04-02T00:42:09.316Z,954.04
2018-04-02T00:43:09.326Z,954.09
2018-04-02T00:44:09.340Z,954.07
2018-04-02T00:45:09.356Z,954.09
2018-04-02T00:46:09.371Z,954.08
2018-04-02T00:47:09.385Z,954.09
2018-04-02T00:48:09.400Z,954.04
2018-04-02T00:49:09.413Z,954.04
2018-04-02T00:50:09.429Z,954.03
2018-04-02T00:51:09.447Z,954.04
2018-04-02T00:52:09.457Z,954
2018-04-02T00:53:09.526Z,953.97
2018-04-02T00:54:09.488Z,954.03
2018-04-02T00:55:09.503Z,954
2018-04-02T00:56:09.517Z,954
2018-04-02T00:57:09.533Z,954.04
2018-04-02T00:58:09.548Z,954.01
2018-04-02T00:59:09.562Z,953.97
2018-04-02T01:00:09.577Z,954.04
2018-04-02T01:01:09.592Z,953.98
2018-04-02T01:02:09.623Z,954.03
2018-04-02T01:03:09.642Z,953.99
2018-04-02T01:04:09.659Z,954.03
2018-04-02T01:05:09.652Z,954.02
2018-04-02T01:06:09.665Z,954.01
2018-04-02T01:07:09.682Z,954.01
2018-04-02T01:08:09.746Z,954.03
2018-04-02T01:09:09.712Z,954.01
2018-04-02T01:10:09.725Z,954.02
2018-04-02T01:11:09.740Z,954.04
2018-04-02T01:12:09.757Z,954.06
2018-04-02T01:13:09.769Z,954.05
2018-04-02T01:14:09.784Z,954.08
2018-04-02T01:15:09.799Z,954.04
2018-04-02T01:16:09.813Z,954.04
2018-04-02T01:17:09.828Z,954.07
2018-04-02T01:18:09.894Z,954.1
2018-04-02T01:19:09.858Z,954.08
2018-04-02T01:20:09.872Z,954.04
2018-04-02T01:21:09.885Z,954.07
2018-04-02T01:22:09.902Z,954.04
2018-04-02T01:23:09.917Z,954.07
2018-04-02T01:24:09.933Z,954.05
2018-04-02T01:25:09.948Z,954.08
2018-04-02T01:26:09.963Z,954.04
2018-04-02T01:27:09.978Z,954.04
2018-04-02T01:28:09.994Z,954.04
2018-04-02T01:29:10.007Z,953.98
2018-04-02T01:30:10.022Z,953.96
2018-04-02T01:31:10.041Z,953.93
2018-04-02T01:32:10.068Z,953.96
2018-04-02T01:33:10.132Z,953.93
2018-04-02T01:34:10.081Z,953.89
2018-04-02T01:35:10.096Z,953.91
2018-04-02T01:36:10.112Z,953.92
2018-04-02T01:37:10.126Z,953.91
2018-04-02T01:38:10.143Z,953.85
2018-04-02T01:39:10.155Z,953.87
2018-04-02T01:40:10.170Z,953.9
2018-04-02T01:41:10.184Z,953.84
2018-04-02T01:42:10.201Z,953.89
2018-04-02T01:43:10.213Z,953.83
2018-04-02T01:44:10.230Z,953.86
2018-04-02T01:45:10.243Z,953.85
2018-04-02T01:46:10.258Z,953.84
2018-04-02T01:47:10.273Z,953.83
2018-04-02T01:48:10.360Z,953.82
2018-04-02T01:49:10.307Z,953.8
2018-04-02T01:50:10.337Z,953.82
2018-04-02T01:51:10.331Z,953.77
2018-04-02T01:52:10.348Z,953.79
2018-04-02T01:53:10.363Z,953.79
2018-04-02T01:54:10.380Z,953.79
2018-04-02T01:55:10.393Z,953.74
2018-04-02T01:56:10.407Z,953.71
2018-04-02T01:57:10.422Z,953.7
2018-04-02T01:58:10.436Z,953.69
2018-04-02T01:59:10.450Z,953.68
2018-04-02T02:00:10.468Z,953.73
2018-04-02T02:01:10.482Z,953.76
2018-04-02T02:02:10.494Z,953.74
2018-04-02T02:03:10.659Z,953.71
2018-04-02T02:04:10.524Z,953.73
2018-04-02T02:05:10.539Z,953.7
2018-04-02T02:06:10.554Z,953.68
2018-04-02T02:07:10.569Z,953.68
2018-04-02T02:08:10.584Z,953.66
2018-04-02T02:09:10.598Z,953.67
2018-04-02T02:10:10.613Z,953.68
2018-04-02T02:11:10.628Z,953.71
2018-04-02T02:12:10.646Z,953.69
2018-04-02T02:13:10.656Z,953.72
2018-04-02T02:14:10.671Z,953.69
2018-04-02T02:15:10.685Z,953.72
2018-04-02T02:16:10.699Z,953.7
2018-04-02T02:17:10.714Z,953.71
2018-04-02T02:18:10.778Z,953.67
2018-04-02T02:19:10.743Z,953.63
2018-04-02T02:20:10.761Z,953.67
2018-04-02T02:21:10.773Z,953.64
2018-04-02T02:22:10.787Z,953.7
2018-04-02T02:23:10.801Z,953.64
2018-04-02T02:24:10.817Z,953.67
2018-04-02T02:25:10.830Z,953.61
2018-04-02T02:26:10.844Z,953.6
2018-04-02T02:27:10.858Z,953.6
2018-04-02T02:28:10.874Z,953.62
2018-04-02T02:29:10.889Z,953.64
2018-04-02T02:30:10.906Z,953.6
2018-04-02T02:31:10.925Z,953.62
2018-04-02T02:32:10.933Z,953.57
2018-04-02T02:33:10.996Z,953.62
2018-04-02T02:34:10.966Z,953.62
2018-04-02T02:35:10.974Z,953.58
2018-04-02T02:36:10.989Z,953.59
2018-04-02T02:37:11.005Z,953.57
2018-04-02T02:38:11.019Z,953.63
2018-04-02T02:39:11.031Z,953.64
2018-04-02T02:40:11.051Z,953.63
2018-04-02T02:41:11.060Z,953.6
2018-04-02T02:42:11.077Z,953.64
2018-04-02T02:43:11.140Z,953.66
2018-04-02T02:44:11.104Z,953.66
2018-04-02T02:45:11.124Z,953.71
2018-04-02T02:46:11.132Z,953.7
2018-04-02T02:47:11.149Z,953.72
2018-04-02T02:48:11.164Z,953.69
2018-04-02T02:49:11.176Z,953.69
2018-04-02T02:50:11.196Z,953.74
2018-04-02T02:51:11.206Z,953.72
2018-04-02T02:52:11.226Z,953.71
2018-04-02T02:53:11.235Z,953.75
2018-04-02T02:54:11.249Z,953.71
2018-04-02T02:55:11.273Z,953.69
2018-04-02T02:56:11.280Z,953.66
2018-04-02T02:57:11.292Z,953.65
2018-04-02T02:58:11.356Z,953.65
2018-04-02T02:59:11.323Z,953.72
2018-04-02T03:00:11.339Z,953.69
2018-04-02T03:01:11.349Z,953.67
2018-04-02T03:02:11.365Z,953.72
2018-04-02T03:03:11.380Z,953.73
2018-04-02T03:04:11.410Z,953.72
2018-04-02T03:05:11.412Z,953.72
2018-04-02T03:06:11.423Z,953.76
2018-04-02T03:07:11.437Z,953.71
2018-04-02T03:08:11.453Z,953.76
2018-04-02T03:09:11.465Z,953.8
2018-04-02T03:10:11.478Z,953.73
2018-04-02T03:11:11.492Z,953.78
2018-04-02T03:12:11.510Z,953.75
2018-04-02T03:13:11.575Z,953.75
2018-04-02T03:14:11.538Z,953.72
2018-04-02T03:15:11.552Z,953.74
2018-04-02T03:16:11.572Z,953.77
2018-04-02T03:17:11.581Z,953.73
2018-04-02T03:18:11.596Z,953.73
2018-04-02T03:19:11.619Z,953.7
2018-04-02T03:20:11.627Z,953.71
2018-04-02T03:21:11.639Z,953.71
2018-04-02T03:22:11.678Z,953.7
2018-04-02T03:23:11.719Z,953.66
2018-04-02T03:24:11.684Z,953.68
2018-04-02T03:25:11.697Z,953.64
2018-04-02T03:26:11.711Z,953.62
2018-04-02T03:27:11.730Z,953.62
2018-04-02T03:28:11.791Z,953.62
2018-04-02T03:29:11.756Z,953.64
2018-04-02T03:30:11.771Z,953.64
2018-04-02T03:31:11.786Z,953.61
2018-04-02T03:32:11.798Z,953.63
2018-04-02T03:33:11.813Z,953.66
2018-04-02T03:34:11.830Z,953.64
2018-04-02T03:35:11.843Z,953.64
2018-04-02T03:36:11.857Z,953.63
2018-04-02T03:37:11.871Z,953.58
2018-04-02T03:38:11.889Z,953.61
2018-04-02T03:39:11.900Z,953.61
2018-04-02T03:40:11.914Z,953.59
2018-04-02T03:41:11.927Z,953.6
2018-04-02T03:42:11.942Z,953.58
2018-04-02T03:43:12.006Z,953.57
2018-04-02T03:44:11.971Z,953.56
2018-04-02T03:45:11.985Z,953.58
2018-04-02T03:46:11.999Z,953.55
2018-04-02T03:47:12.014Z,953.52
2018-04-02T03:48:12.027Z,953.54
2018-04-02T03:49:12.039Z,953.49
2018-04-02T03:50:12.053Z,953.53
2018-04-02T03:51:12.092Z,953.51
2018-04-02T03:52:12.083Z,953.57
2018-04-02T03:53:12.099Z,953.52
2018-04-02T03:54:12.114Z,953.55
2018-04-02T03:55:12.132Z,953.55
2018-04-02T03:56:12.144Z,953.52
2018-04-02T03:57:12.154Z,953.54
2018-04-02T03:58:12.219Z,953.53
2018-04-02T03:59:12.183Z,953.55
2018-04-02T04:00:12.198Z,953.53
2018-04-02T04:01:12.212Z,953.56
2018-04-02T04:02:12.227Z,953.53
2018-04-02T04:03:12.240Z,953.54
2018-04-02T04:04:12.255Z,953.53
2018-04-02T04:05:12.268Z,953.56
2018-04-02T04:06:12.282Z,953.55
2018-04-02T04:07:12.298Z,953.54
2018-04-02T04:08:12.312Z,953.57
2018-04-02T04:09:12.324Z,953.53
2018-04-02T04:10:12.341Z,953.54
2018-04-02T04:11:12.353Z,953.54
2018-04-02T04:12:12.367Z,953.53
2018-04-02T04:13:12.442Z,953.51
2018-04-02T04:14:12.397Z,953.55
2018-04-02T04:15:12.416Z,953.48
2018-04-02T04:16:12.428Z,953.51
2018-04-02T04:17:12.445Z,953.49
2018-04-02T04:18:12.459Z,953.52
2018-04-02T04:19:12.471Z,953.5
2018-04-02T04:20:12.485Z,953.54
2018-04-02T04:21:12.500Z,953.52
2018-04-02T04:22:12.514Z,953.55
2018-04-02T04:23:12.528Z,953.51
2018-04-02T04:24:12.542Z,953.5
2018-04-02T04:25:12.557Z,953.56
2018-04-02T04:26:12.596Z,953.53
2018-04-02T04:27:12.588Z,953.5
2018-04-02T04:28:12.651Z,953.53
2018-04-02T04:29:12.614Z,953.54
2018-04-02T04:30:12.628Z,953.54
2018-04-02T04:31:12.643Z,953.59
2018-04-02T04:32:12.657Z,953.57
2018-04-02T04:33:12.678Z,953.59
2018-04-02T04:34:12.686Z,953.61
2018-04-02T04:35:12.700Z,953.62
2018-04-02T04:36:12.716Z,953.6
2018-04-02T04:37:12.730Z,953.56
2018-04-02T04:38:12.744Z,953.57
2018-04-02T04:39:12.758Z,953.58
2018-04-02T04:40:12.811Z,953.56
2018-04-02T04:41:12.787Z,953.54
2018-04-02T04:42:12.800Z,953.54
2018-04-02T04:43:12.866Z,953.58
2018-04-02T04:44:12.829Z,953.54
2018-04-02T04:45:12.842Z,953.55
2018-04-02T04:46:12.858Z,953.53
2018-04-02T04:47:12.873Z,953.53
2018-04-02T04:48:12.888Z,953.49
2018-04-02T04:49:12.902Z,953.5
2018-04-02T04:50:12.916Z,953.52
2018-04-02T04:51:12.931Z,953.49
2018-04-02T04:52:12.950Z,953.48
2018-04-02T04:53:13.009Z,953.47
2018-04-02T04:54:12.976Z,953.52
2018-04-02T04:55:12.990Z,953.47
2018-04-02T04:56:13.004Z,953.49
2018-04-02T04:57:13.020Z,953.54
2018-04-02T04:58:13.031Z,953.5
2018-04-02T04:59:13.046Z,953.51
2018-04-02T05:00:13.062Z,953.54
2018-04-02T05:01:13.075Z,953.5
2018-04-02T05:02:13.089Z,953.5
2018-04-02T05:03:13.104Z,953.51
2018-04-02T05:04:13.119Z,953.51
2018-04-02T05:05:13.134Z,953.57
2018-04-02T05:06:13.148Z,953.53
2018-04-02T05:07:13.162Z,953.56
2018-04-02T05:08:13.227Z,953.5
2018-04-02T05:09:13.190Z,953.54
2018-04-02T05:10:13.206Z,953.52
2018-04-02T05:11:13.222Z,953.53
2018-04-02T05:12:13.237Z,953.48
2018-04-02T05:13:13.250Z,953.51
2018-04-02T05:14:13.259Z,953.45
2018-04-02T05:15:13.273Z,953.47
2018-04-02T05:16:13.288Z,953.45
2018-04-02T05:17:13.303Z,953.42
2018-04-02T05:18:13.318Z,953.45
2018-04-02T05:19:13.334Z,953.45
2018-04-02T05:20:13.346Z,953.46
2018-04-02T05:21:13.361Z,953.47
2018-04-02T05:22:13.378Z,953.44
2018-04-02T05:23:13.392Z,953.44
2018-04-02T05:24:13.407Z,953.42
2018-04-02T05:25:13.422Z,953.42
2018-04-02T05:26:13.434Z,953.38
2018-04-02T05:27:13.498Z,953.39
2018-04-02T05:28:13.461Z,953.35
2018-04-02T05:29:13.475Z,953.32
2018-04-02T05:30:13.490Z,953.34
2018-04-02T05:31:13.504Z,953.29
2018-04-02T05:32:13.520Z,953.3
2018-04-02T05:33:13.532Z,953.31
2018-04-02T05:34:13.550Z,953.31
2018-04-02T05:35:13.565Z,953.29
2018-04-02T05:36:13.577Z,953.3
2018-04-02T05:37:13.597Z,953.35
2018-04-02T05:38:13.607Z,953.33
2018-04-02T05:39:13.622Z,953.36
2018-04-02T05:40:13.637Z,953.39
2018-04-02T05:41:13.649Z,953.4
2018-04-02T05:42:13.725Z,953.37
2018-04-02T05:43:13.678Z,953.43
2018-04-02T05:44:13.692Z,953.39
2018-04-02T05:45:13.729Z,953.45
2018-04-02T05:46:13.721Z,953.47
2018-04-02T05:47:13.739Z,953.44
2018-04-02T05:48:13.750Z,953.41
2018-04-02T05:49:13.767Z,953.43
2018-04-02T05:50:13.779Z,953.4
2018-04-02T05:51:13.793Z,953.39
2018-04-02T05:52:13.808Z,953.42
2018-04-02T05:53:13.822Z,953.43
2018-04-02T05:54:13.839Z,953.41
2018-04-02T05:55:13.851Z,953.37
2018-04-02T05:56:13.866Z,953.36
2018-04-02T05:57:14.031Z,953.38
2018-04-02T05:58:13.893Z,953.38
2018-04-02T05:59:13.908Z,953.37
2018-04-02T06:00:13.923Z,953.43
2018-04-02T06:01:13.935Z,953.4
2018-04-02T06:02:13.952Z,953.41
2018-04-02T06:03:13.966Z,953.41
2018-04-02T06:04:13.980Z,953.38
2018-04-02T06:05:14.066Z,953.41
2018-04-02T06:06:14.009Z,953.41
2018-04-02T06:07:14.024Z,953.41
2018-04-02T06:08:14.041Z,953.43
2018-04-02T06:09:14.052Z,953.44
2018-04-02T06:10:14.068Z,953.44
2018-04-02T06:11:14.083Z,953.44
2018-04-02T06:12:14.098Z,953.43
2018-04-02T06:13:14.111Z,953.48
2018-04-02T06:14:14.126Z,953.43
2018-04-02T06:15:14.141Z,953.42
2018-04-02T06:16:14.178Z,953.41
2018-04-02T06:17:14.171Z,953.41
2018-04-02T06:18:14.184Z,953.45
2018-04-02T06:19:14.204Z,953.45
2018-04-02T06:20:14.216Z,953.4
2018-04-02T06:21:14.236Z,953.43
2018-04-02T06:22:14.246Z,953.39
2018-04-02T06:23:14.258Z,953.38
2018-04-02T06:24:14.273Z,953.42
2018-04-02T06:25:14.286Z,953.43
2018-04-02T06:26:14.302Z,953.44
2018-04-02T06:27:14.317Z,953.43
2018-04-02T06:28:14.333Z,953.4
2018-04-02T06:29:14.347Z,953.38
2018-04-02T06:30:14.441Z,953.4
2018-04-02T06:31:14.378Z,953.4
2018-04-02T06:32:14.393Z,953.38
2018-04-02T06:33:14.409Z,953.41
2018-04-02T06:34:14.424Z,953.38
2018-04-02T06:35:14.439Z,953.38
2018-04-02T06:36:14.454Z,953.4
2018-04-02T06:37:14.471Z,953.42
2018-04-02T06:38:14.487Z,953.36
2018-04-02T06:39:14.502Z,953.41
2018-04-02T06:40:14.518Z,953.4
2018-04-02T06:41:14.535Z,953.38
2018-04-02T06:42:14.548Z,953.44
2018-04-02T06:43:14.565Z,953.39
2018-04-02T06:44:14.631Z,953.37
2018-04-02T06:45:14.618Z,953.38
2018-04-02T06:46:14.611Z,953.35
2018-04-02T06:47:14.627Z,953.36
2018-04-02T06:48:14.644Z,953.37
2018-04-02T06:49:14.656Z,953.38
2018-04-02T06:50:14.678Z,953.37
2018-04-02T06:51:14.690Z,953.38
2018-04-02T06:52:14.706Z,953.38
2018-04-02T06:53:14.720Z,953.34
2018-04-02T06:54:14.737Z,953.34
2018-04-02T06:55:14.753Z,953.34
2018-04-02T06:56:14.774Z,953.38
2018-04-02T06:57:14.789Z,953.35
2018-04-02T06:58:14.800Z,953.38
2018-04-02T06:59:14.866Z,953.36
2018-04-02T07:00:14.832Z,953.37
2018-04-02T07:01:14.847Z,953.38
2018-04-02T07:02:14.863Z,953.33
2018-04-02T07:03:14.880Z,953.3
2018-04-02T07:04:14.895Z,953.37
2018-04-02T07:05:14.910Z,953.32
2018-04-02T07:06:14.927Z,953.38
2018-04-02T07:07:14.947Z,953.32
2018-04-02T07:08:14.960Z,953.34
2018-04-02T07:09:14.977Z,953.31
2018-04-02T07:10:14.992Z,953.28
2018-04-02T07:11:15.006Z,953.25
2018-04-02T07:12:15.023Z,953.26
2018-04-02T07:13:15.044Z,953.27
2018-04-02T07:14:15.057Z,953.25
2018-04-02T07:15:15.123Z,953.28
2018-04-02T07:16:15.087Z,953.3
2018-04-02T07:17:15.105Z,953.31
2018-04-02T07:18:15.121Z,953.28
2018-04-02T07:19:15.137Z,953.29
2018-04-02T07:20:15.154Z,953.29
2018-04-02T07:21:15.169Z,953.28
2018-04-02T07:22:15.185Z,953.29
2018-04-02T07:23:15.201Z,953.28
2018-04-02T07:24:15.218Z,953.28
2018-04-02T07:25:15.285Z,953.22
2018-04-02T07:26:15.251Z,953.26
2018-04-02T07:27:15.266Z,953.24
2018-04-02T07:28:15.284Z,953.27
2018-04-02T07:29:15.301Z,953.25
2018-04-02T07:30:15.315Z,953.21
2018-04-02T07:31:15.332Z,953.21
2018-04-02T07:32:15.348Z,953.22
2018-04-02T07:33:15.365Z,953.24
2018-04-02T07:34:15.382Z,953.23
2018-04-02T07:35:15.399Z,953.25
2018-04-02T07:36:15.415Z,953.23
2018-04-02T07:37:15.430Z,953.25
2018-04-02T07:38:15.448Z,953.25
2018-04-02T07:39:15.466Z,953.2
2018-04-02T07:40:15.533Z,953.21
2018-04-02T07:41:15.498Z,953.22
2018-04-02T07:42:15.515Z,953.19
2018-04-02T07:43:15.532Z,953.19
2018-04-02T07:44:15.579Z,953.14
2018-04-02T07:45:15.566Z,953.12
2018-04-02T07:46:15.648Z,953.11
2018-04-02T07:47:15.601Z,953.15
2018-04-02T07:48:15.617Z,953.16
2018-04-02T07:49:15.634Z,953.11
2018-04-02T07:50:15.654Z,953.13
2018-04-02T07:51:15.668Z,953.13
2018-04-02T07:52:15.684Z,953.12
2018-04-02T07:53:15.701Z,953.15
2018-04-02T07:54:15.719Z,953.16
2018-04-02T07:55:15.785Z,953.14
2018-04-02T07:56:15.753Z,953.14
2018-04-02T07:57:15.770Z,953.13
2018-04-02T07:58:15.787Z,953.16
2018-04-02T07:59:15.804Z,953.16
2018-04-02T08:00:15.823Z,953.15
2018-04-02T08:01:15.838Z,953.09
2018-04-02T08:02:15.856Z,953.12
2018-04-02T08:03:15.872Z,953.1
2018-04-02T08:04:15.941Z,953.15
2018-04-02T08:05:15.908Z,953.13
2018-04-02T08:06:15.933Z,953.16
2018-04-02T08:07:15.940Z,953.14
2018-04-02T08:08:15.956Z,953.14
2018-04-02T08:09:15.975Z,953.2
2018-04-02T08:10:16.043Z,953.18
2018-04-02T08:11:16.013Z,953.18
2018-04-02T08:12:16.027Z,953.22
2018-04-02T08:13:16.047Z,953.18
2018-04-02T08:14:16.065Z,953.16
2018-04-02T08:15:16.084Z,953.14
2018-04-02T08:16:16.101Z,953.21
2018-04-02T08:17:16.118Z,953.19
2018-04-02T08:18:16.136Z,953.22
2018-04-02T08:19:16.153Z,953.21
2018-04-02T08:20:16.173Z,953.21
2018-04-02T08:21:16.192Z,953.19
2018-04-02T08:22:16.208Z,953.17
2018-04-02T08:23:16.226Z,953.15
2018-04-02T08:24:16.244Z,953.17
2018-04-02T08:25:16.323Z,953.13
2018-04-02T08:26:16.281Z,953.11
2018-04-02T08:27:16.299Z,953.13
2018-04-02T08:28:16.321Z,953.12
2018-04-02T08:29:16.335Z,953.11
2018-04-02T08:30:16.355Z,953.11
2018-04-02T08:31:16.372Z,953.15
2018-04-02T08:32:16.390Z,953.14
2018-04-02T08:33:16.408Z,953.14
2018-04-02T08:34:16.426Z,953.18
2018-04-02T08:35:16.441Z,953.17
2018-04-02T08:36:16.459Z,953.21
2018-04-02T08:37:16.480Z,953.19
2018-04-02T08:38:16.499Z,953.19
2018-04-02T08:39:16.517Z,953.21
2018-04-02T08:40:16.585Z,953.21
2018-04-02T08:41:16.553Z,953.16
2018-04-02T08:42:16.573Z,953.18
2018-04-02T08:43:16.590Z,953.11
2018-04-02T08:44:16.658Z,953.11
2018-04-02T08:45:16.629Z,953.22
2018-04-02T08:46:16.645Z,953.21
2018-04-02T08:47:16.664Z,953.14
2018-04-02T08:48:16.682Z,953.15
2018-04-02T08:49:16.700Z,953.17
2018-04-02T08:50:16.717Z,953.19
2018-04-02T08:51:16.739Z,953.13
2018-04-02T08:52:16.762Z,953.18
2018-04-02T08:53:16.777Z,953.2
2018-04-02T08:54:16.794Z,953.18
2018-04-02T08:55:16.868Z,953.25
2018-04-02T08:56:16.834Z,953.23
2018-04-02T08:57:16.855Z,953.22
2018-04-02T08:58:16.873Z,953.17
2018-04-02T08:59:16.890Z,953.17
2018-04-02T09:00:16.911Z,953.14
2018-04-02T09:01:16.928Z,953.12
2018-04-02T09:02:16.948Z,953.11
2018-04-02T09:03:16.967Z,953.13
2018-04-02T09:04:16.986Z,953.08
2018-04-02T09:05:17.005Z,953.1
2018-04-02T09:06:17.022Z,953.09
2018-04-02T09:07:17.045Z,953.07
2018-04-02T09:08:17.059Z,953.09
2018-04-02T09:09:17.108Z,953.04
2018-04-02T09:10:17.148Z,953.04
2018-04-02T09:11:17.119Z,953.08
2018-04-02T09:12:17.136Z,953.09
2018-04-02T09:13:17.173Z,953.02
2018-04-02T09:14:17.180Z,953.04
2018-04-02T09:15:17.195Z,953.05
2018-04-02T09:16:17.212Z,953.03
2018-04-02T09:17:17.281Z,953.04
2018-04-02T09:18:17.255Z,953.06
2018-04-02T09:19:17.276Z,953.08
2018-04-02T09:20:17.296Z,953.04
2018-04-02T09:21:17.322Z,953.02
2018-04-02T09:22:17.336Z,953.05
2018-04-02T09:23:17.358Z,953
2018-04-02T09:24:17.377Z,953
2018-04-02T09:25:17.449Z,953.02
2018-04-02T09:26:17.422Z,953.01
2018-04-02T09:27:17.441Z,952.99
2018-04-02T09:28:17.468Z,952.97
2018-04-02T09:29:17.486Z,952.95
2018-04-02T09:30:17.509Z,952.94
2018-04-02T09:31:17.532Z,952.95
2018-04-02T09:32:17.553Z,952.87
2018-04-02T09:33:17.578Z,952.85
2018-04-02T09:34:17.606Z,952.84
2018-04-02T09:35:17.623Z,952.83
2018-04-02T09:36:17.662Z,952.86
2018-04-02T09:37:17.671Z,952.91
2018-04-02T09:38:17.695Z,952.93
2018-04-02T09:39:17.720Z,952.92
2018-04-02T09:40:17.796Z,952.88
2018-04-02T09:41:17.768Z,952.86
2018-04-02T09:42:17.792Z,952.88
2018-04-02T09:43:17.816Z,952.83
2018-04-02T09:44:17.860Z,952.84
2018-04-02T09:45:17.865Z,952.82
2018-04-02T09:46:17.901Z,952.78
2018-04-02T09:47:17.915Z,952.72
2018-04-02T09:48:17.942Z,952.75
2018-04-02T09:49:17.967Z,952.75
2018-04-02T09:50:17.994Z,952.78
2018-04-02T09:51:18.021Z,952.79
2018-04-02T09:52:18.045Z,952.72
2018-04-02T09:53:18.071Z,952.8
2018-04-02T09:54:18.158Z,952.75
2018-04-02T09:55:18.175Z,952.73
2018-04-02T09:56:18.150Z,952.73
2018-04-02T09:57:18.178Z,952.7
2018-04-02T09:58:18.203Z,952.69
2018-04-02T09:59:18.269Z,952.68
2018-04-02T10:00:18.259Z,952.68
2018-04-02T10:01:18.287Z,952.68
2018-04-02T10:02:18.312Z,952.63
2018-04-02T10:03:18.342Z,952.63
2018-04-02T10:04:18.365Z,952.66
2018-04-02T10:05:18.393Z,952.68
2018-04-02T10:06:18.421Z,952.66
2018-04-02T10:07:18.447Z,952.68
2018-04-02T10:08:18.477Z,952.64
2018-04-02T10:09:18.505Z,952.58
2018-04-02T10:10:18.671Z,952.58
2018-04-02T10:11:18.558Z,952.57
2018-04-02T10:12:18.591Z,952.54
2018-04-02T10:13:18.615Z,952.5
2018-04-02T10:14:18.644Z,952.51
2018-04-02T10:15:18.681Z,952.54
2018-04-02T10:16:18.702Z,952.57
2018-04-02T10:17:18.729Z,952.54
2018-04-02T10:18:18.756Z,952.54
2018-04-02T10:19:18.785Z,952.5
2018-04-02T10:20:18.814Z,952.48
2018-04-02T10:21:18.844Z,952.44
2018-04-02T10:22:18.906Z,952.42
2018-04-02T10:23:18.901Z,952.44
2018-04-02T10:24:18.951Z,952.44
2018-04-02T10:25:19.008Z,952.46
2018-04-02T10:26:19.049Z,952.47
2018-04-02T10:27:19.016Z,952.43
2018-04-02T10:28:19.045Z,952.46
2018-04-02T10:29:19.104Z,952.42
2018-04-02T10:30:19.102Z,952.44
2018-04-02T10:31:19.132Z,952.49
2018-04-02T10:32:19.171Z,952.41
2018-04-02T10:33:19.192Z,952.4
2018-04-02T10:34:19.226Z,952.38
2018-04-02T10:35:19.250Z,952.39
2018-04-02T10:36:19.281Z,952.44
2018-04-02T10:37:19.387Z,952.41
2018-04-02T10:38:19.342Z,952.42
2018-04-02T10:39:19.373Z,952.35
2018-04-02T10:40:19.451Z,952.34
2018-04-02T10:41:19.432Z,952.32
2018-04-02T10:42:19.464Z,952.31
2018-04-02T10:43:19.524Z,952.31
2018-04-02T10:44:19.522Z,952.32
2018-04-02T10:45:19.603Z,952.31
2018-04-02T10:46:19.582Z,952.29
2018-04-02T10:47:19.613Z,952.29
2018-04-02T10:48:19.647Z,952.24
2018-04-02T10:49:19.680Z,952.18
2018-04-02T10:50:19.707Z,952.22
2018-04-02T10:51:19.737Z,952.2
2018-04-02T10:52:19.768Z,952.17
2018-04-02T10:53:19.801Z,952.13
2018-04-02T10:54:19.831Z,952.16
2018-04-02T10:55:19.864Z,952.16
2018-04-02T10:56:19.895Z,952.05
2018-04-02T10:57:19.926Z,952.01
2018-04-02T10:58:19.956Z,951.98
2018-04-02T10:59:19.988Z,952.03
2018-04-02T11:00:20.074Z,951.99
2018-04-02T11:01:20.052Z,951.98
2018-04-02T11:02:20.083Z,951.99
2018-04-02T11:03:20.114Z,951.96
2018-04-02T11:04:20.148Z,952.01
2018-04-02T11:05:20.198Z,952.01
2018-04-02T11:06:20.211Z,951.98
2018-04-02T11:07:20.243Z,952
2018-04-02T11:08:20.285Z,951.97
2018-04-02T11:09:20.306Z,952.01
2018-04-02T11:10:20.439Z,951.97
2018-04-02T11:11:20.372Z,951.98
2018-04-02T11:12:20.402Z,951.97
2018-04-02T11:13:20.434Z,951.96
2018-04-02T11:14:20.474Z,951.93
2018-04-02T11:15:20.550Z,951.89
2018-04-02T11:16:20.528Z,951.92
2018-04-02T11:17:20.565Z,951.87
2018-04-02T11:18:20.593Z,951.94
2018-04-02T11:19:20.626Z,951.93
2018-04-02T11:20:20.658Z,951.93
2018-04-02T11:21:20.690Z,951.97
2018-04-02T11:22:20.725Z,951.89
2018-04-02T11:23:20.757Z,951.89
2018-04-02T11:24:20.786Z,951.85
2018-04-02T11:25:20.819Z,951.82
2018-04-02T11:26:20.857Z,951.86
2018-04-02T11:27:20.892Z,951.82
2018-04-02T11:28:20.918Z,951.75
2018-04-02T11:29:20.949Z,951.74
2018-04-02T11:30:21.032Z,951.72
2018-04-02T11:31:21.021Z,951.78
2018-04-02T11:32:21.047Z,951.72
2018-04-02T11:33:21.080Z,951.73
2018-04-02T11:34:21.116Z,951.7
2018-04-02T11:35:21.197Z,951.71
2018-04-02T11:36:21.180Z,951.71
2018-04-02T11:37:21.215Z,951.72
2018-04-02T11:38:21.249Z,951.67
2018-04-02T11:39:21.281Z,951.66
2018-04-02T11:40:21.314Z,951.74
2018-04-02T11:41:21.349Z,951.67
2018-04-02T11:42:21.384Z,951.69
2018-04-02T11:43:21.416Z,951.63
2018-04-02T11:44:21.449Z,951.68
2018-04-02T11:45:21.485Z,951.69
2018-04-02T11:46:21.515Z,951.69
2018-04-02T11:47:21.549Z,951.73
2018-04-02T11:48:21.583Z,951.65
2018-04-02T11:49:21.616Z,951.74
2018-04-02T11:50:21.700Z,951.65
2018-04-02T11:51:21.687Z,951.72
2018-04-02T11:52:21.716Z,951.7
2018-04-02T11:53:21.747Z,951.7
2018-04-02T11:54:21.782Z,951.73
2018-04-02T11:55:21.915Z,951.73
2018-04-02T11:56:21.848Z,951.64
2018-04-02T11:57:21.888Z,951.59
2018-04-02T11:58:21.916Z,951.54
2018-04-02T11:59:21.949Z,951.54
2018-04-02T12:00:21.982Z,951.54
2018-04-02T12:01:22.017Z,951.55
2018-04-02T12:02:22.059Z,951.59
2018-04-02T12:03:22.085Z,951.56
2018-04-02T12:04:22.119Z,951.54
2018-04-02T12:05:22.200Z,951.56
2018-04-02T12:06:22.187Z,951.61
2018-04-02T12:07:22.221Z,951.61
2018-04-02T12:08:22.258Z,951.57
2018-04-02T12:09:22.321Z,951.57
2018-04-02T12:10:22.322Z,951.57
2018-04-02T12:11:22.357Z,951.56
2018-04-02T12:12:22.402Z,951.6
2018-04-02T12:13:22.426Z,951.54
2018-04-02T12:14:22.461Z,951.59
2018-04-02T12:15:22.543Z,951.61
2018-04-02T12:16:22.528Z,951.6
2018-04-02T12:17:22.563Z,951.59
2018-04-02T12:18:22.597Z,951.63
2018-04-02T12:19:22.636Z,951.57
2018-04-02T12:20:22.716Z,951.54
2018-04-02T12:21:22.701Z,951.57
2018-04-02T12:22:22.735Z,951.5
2018-04-02T12:23:22.769Z,951.52
2018-04-02T12:24:22.805Z,951.55
2018-04-02T12:25:22.840Z,951.51
2018-04-02T12:26:22.881Z,951.5
2018-04-02T12:27:22.909Z,951.48
2018-04-02T12:28:22.947Z,951.42
2018-04-02T12:29:22.992Z,951.4
2018-04-02T12:30:23.013Z,951.36
2018-04-02T12:31:23.049Z,951.47